createdAt,value
2023-06-08T00:02:37.810Z,49.59
2023-06-08T00:07:41.946Z,49.69
2023-06-08T00:12:45.780Z,49.83
2023-06-08T00:17:49.899Z,49.86
2023-06-08T00:22:53.101Z,49.98
2023-06-08T00:27:55.819Z,50.16
2023-06-08T00:32:59.828Z,49.96
2023-06-08T00:38:02.465Z,50.06
2023-06-08T00:43:05.233Z,50.21
2023-06-08T00:48:09.874Z,50.21
2023-06-08T00:53:13.137Z,50.16
2023-06-08T00:58:17.095Z,50.43
2023-06-08T01:03:21.629Z,50.37
2023-06-08T01:08:32.952Z,50.38
2023-06-08T01:13:41.894Z,50.75
2023-06-08T01:18:48.461Z,50.77
2023-06-08T01:24:03.564Z,50.62
2023-06-08T01:29:07.640Z,50.72
2023-06-08T01:34:11.639Z,50.83
2023-06-08T01:39:24.130Z,51.08
2023-06-08T01:44:28.319Z,51.05
2023-06-08T01:49:32.264Z,50.99
2023-06-08T01:54:36.456Z,50.87
2023-06-08T01:59:39.158Z,51.21
2023-06-08T02:04:41.845Z,51.14
2023-06-08T02:09:46.388Z,51.35
2023-06-08T02:14:49.207Z,51.20
2023-06-08T02:19:52.297Z,51.44
2023-06-08T02:24:56.954Z,51.50
2023-06-08T02:30:00.103Z,51.46
2023-06-08T02:35:02.938Z,51.58
2023-06-08T02:40:10.762Z,51.74
2023-06-08T02:45:15.941Z,51.86
2023-06-08T02:50:18.967Z,51.70
2023-06-08T02:55:23.564Z,51.82
2023-06-08T03:00:27.159Z,51.79
2023-06-08T03:05:59.815Z,52.10
2023-06-08T03:11:08.261Z,51.95
2023-06-08T03:16:14.157Z,52.07
2023-06-08T03:21:19.624Z,52.09
2023-06-08T03:26:24.534Z,52.01
2023-06-08T03:31:27.584Z,52.07
2023-06-08T03:36:35.108Z,52.03
2023-06-08T03:41:45.051Z,52.00
2023-06-08T03:46:49.589Z,52.07
2023-06-08T03:51:53.474Z,52.17
2023-06-08T03:56:57.869Z,52.20
2023-06-08T04:02:01.276Z,52.20
2023-06-08T04:07:05.928Z,52.02
2023-06-08T04:12:11.228Z,51.84
2023-06-08T04:17:14.680Z,51.83
2023-06-08T04:22:19.165Z,52.00
2023-06-08T04:27:26.940Z,51.63
2023-06-08T04:32:29.830Z,50.70
2023-06-08T04:37:33.207Z,49.38
2023-06-08T04:42:40.504Z,48.61
2023-06-08T04:47:44.782Z,48.69
2023-06-08T04:52:48.133Z,48.71
2023-06-08T04:57:52.206Z,48.81
2023-06-08T05:02:54.993Z,48.96
2023-06-08T05:07:57.737Z,48.98
2023-06-08T05:13:02.394Z,49.02
2023-06-08T05:18:05.574Z,48.88
2023-06-08T05:23:08.300Z,49.04
2023-06-08T05:28:12.318Z,48.84
2023-06-08T05:33:15.053Z,48.85
2023-06-08T05:38:17.832Z,48.81
2023-06-08T05:43:21.765Z,48.74
2023-06-08T05:48:24.582Z,48.69
2023-06-08T05:53:27.316Z,48.52
2023-06-08T05:58:48.144Z,48.35
2023-06-08T06:03:52.048Z,48.30
2023-06-08T06:08:54.919Z,48.25
2023-06-08T06:14:00.061Z,48.14
2023-06-08T06:19:03.205Z,48.19
2023-06-08T06:24:06.868Z,48.14
2023-06-08T06:29:11.337Z,48.10
2023-06-08T06:34:14.030Z,48.02
2023-06-08T06:39:16.961Z,48.05
2023-06-08T06:44:21.074Z,48.03
2023-06-08T06:49:23.853Z,48.04
2023-06-08T06:54:26.485Z,47.99
2023-06-08T06:59:30.541Z,48.07
2023-06-08T07:04:34.056Z,48.20
2023-06-08T07:09:36.984Z,48.08
2023-06-08T07:14:41.080Z,48.07
2023-06-08T07:19:43.858Z,48.12
2023-06-08T07:25:10.760Z,47.99
2023-06-08T07:30:13.194Z,47.82
2023-06-08T07:35:15.906Z,48.13
2023-06-08T07:40:19.672Z,48.22
2023-06-08T07:45:23.692Z,48.30
2023-06-08T07:50:26.405Z,48.59
2023-06-08T07:55:29.052Z,48.55
2023-06-08T08:00:33.158Z,48.86
2023-06-08T08:05:35.859Z,48.09
2023-06-08T08:10:38.843Z,48.15
2023-06-08T08:15:43.014Z,48.39
2023-06-08T08:20:45.813Z,48.69
2023-06-08T08:25:48.667Z,48.55
2023-06-08T08:30:52.746Z,48.79
2023-06-08T08:35:55.537Z,49.64
2023-06-08T08:41:02.822Z,49.80
2023-06-08T08:46:07.899Z,49.75
2023-06-08T08:51:13.835Z,49.92
2023-06-08T08:56:20.801Z,49.83
2023-06-08T09:01:25.058Z,50.03
2023-06-08T09:06:29.039Z,50.05
2023-06-08T09:11:35.683Z,50.04
2023-06-08T09:16:44.689Z,50.05
2023-06-08T09:21:48.341Z,50.48
2023-06-08T09:26:53.103Z,50.34
2023-06-08T09:31:57.154Z,50.17
2023-06-08T09:37:07.416Z,50.00
2023-06-08T09:42:10.811Z,50.01
2023-06-08T09:47:24.047Z,50.03
2023-06-08T09:52:27.022Z,49.60
2023-06-08T09:57:34.768Z,49.50
2023-06-08T10:02:46.835Z,49.87
2023-06-08T10:07:50.565Z,49.62
2023-06-08T10:12:53.460Z,49.63
2023-06-08T10:17:57.784Z,49.49
2023-06-08T10:23:01.265Z,49.48
2023-06-08T10:28:08.384Z,49.78
2023-06-08T10:33:13.579Z,49.93
2023-06-08T10:38:17.389Z,49.71
2023-06-08T10:43:48.342Z,49.65
2023-06-08T10:48:49.656Z,49.76
2023-06-08T10:53:57.694Z,49.88
2023-06-08T10:59:00.631Z,49.77
2023-06-08T11:04:12.464Z,49.79
2023-06-08T11:09:22.066Z,50.09
2023-06-08T11:14:24.698Z,49.85
2023-06-08T11:19:30.885Z,49.85
2023-06-08T11:24:33.498Z,49.73
2023-06-08T11:29:36.364Z,49.88
2023-06-08T11:34:42.579Z,49.81
2023-06-08T11:39:45.294Z,49.63
2023-06-08T11:44:49.825Z,49.77
2023-06-08T11:49:54.109Z,49.65
2023-06-08T11:54:57.772Z,49.59
2023-06-08T12:00:07.239Z,49.80
2023-06-08T12:05:17.580Z,49.76
2023-06-08T12:10:20.414Z,49.58
2023-06-08T12:15:23.062Z,49.62
2023-06-08T12:20:32.016Z,49.52
2023-06-08T12:25:35.718Z,49.59
2023-06-08T12:30:38.324Z,49.72
2023-06-08T12:35:43.296Z,49.78
2023-06-08T12:40:48.656Z,49.81
2023-06-08T12:45:51.665Z,49.86
2023-06-08T12:50:58.495Z,49.97
2023-06-08T12:56:01.175Z,50.13
2023-06-08T13:01:03.857Z,50.17
2023-06-08T13:06:08.045Z,49.92
2023-06-08T13:11:10.645Z,49.99
2023-06-08T13:16:13.436Z,50.16
2023-06-08T13:21:17.499Z,49.97
2023-06-08T13:26:20.176Z,50.02
2023-06-08T13:31:22.869Z,49.80
2023-06-08T13:36:30.570Z,49.93
2023-06-08T13:41:36.407Z,50.11
2023-06-08T13:46:40.498Z,50.04
2023-06-08T13:51:45.065Z,49.98
2023-06-08T13:56:48.009Z,49.88
2023-06-08T14:01:50.777Z,49.84
2023-06-08T14:06:54.890Z,49.77
2023-06-08T14:11:57.587Z,49.68
2023-06-08T14:17:00.365Z,49.65
2023-06-08T14:22:05.781Z,49.58
2023-06-08T14:27:08.765Z,49.48
2023-06-08T14:32:11.426Z,49.47
2023-06-08T14:37:15.413Z,49.38
2023-06-08T14:42:18.067Z,49.46
2023-06-08T14:47:20.945Z,49.37
2023-06-08T14:52:24.902Z,49.43
2023-06-08T14:57:28.154Z,49.42
2023-06-08T15:02:30.781Z,49.47
2023-06-08T15:07:37.015Z,49.25
2023-06-08T15:12:39.989Z,49.36
2023-06-08T15:17:42.625Z,49.31
2023-06-08T15:22:46.709Z,49.20
2023-06-08T15:27:49.381Z,49.25
2023-06-08T15:32:52.035Z,49.19
2023-06-08T15:37:56.170Z,49.07
2023-06-08T15:42:58.848Z,49.26
2023-06-08T15:48:01.498Z,49.09
2023-06-08T15:53:05.566Z,49.12
2023-06-08T15:58:09.199Z,49.12
2023-06-08T16:03:11.873Z,49.12
2023-06-08T16:08:18.031Z,49.10
2023-06-08T16:13:20.695Z,48.94
2023-06-08T16:18:23.507Z,48.95
2023-06-08T16:23:28.208Z,48.84
2023-06-08T16:28:31.620Z,48.89
2023-06-08T16:33:34.348Z,48.84
2023-06-08T16:38:39.415Z,48.78
2023-06-08T16:43:42.926Z,48.68
2023-06-08T16:48:45.665Z,48.69
2023-06-08T16:53:49.685Z,48.40
2023-06-08T16:58:52.359Z,48.45
2023-06-08T17:03:55.076Z,48.41
2023-06-08T17:08:59.038Z,48.30
2023-06-08T17:14:01.681Z,48.37
2023-06-08T17:19:04.468Z,48.30
2023-06-08T17:24:08.910Z,48.19
2023-06-08T17:29:11.657Z,48.24
2023-06-08T17:34:14.948Z,48.35
2023-06-08T17:39:18.934Z,48.41
2023-06-08T17:44:21.605Z,48.29
2023-06-08T17:49:24.259Z,48.20
2023-06-08T17:54:28.230Z,48.00
2023-06-08T17:59:30.877Z,47.90
2023-06-08T18:04:33.560Z,48.02
2023-06-08T18:09:37.575Z,47.76
2023-06-08T18:14:40.269Z,47.65
2023-06-08T18:19:42.940Z,47.64
2023-06-08T18:24:46.906Z,47.75
2023-06-08T18:29:49.562Z,47.48
2023-06-08T18:34:52.951Z,47.34
2023-06-08T18:39:59.212Z,47.23
2023-06-08T18:45:16.531Z,47.41
2023-06-08T18:50:19.199Z,47.59
2023-06-08T18:55:23.224Z,47.38
2023-06-08T19:00:26.209Z,47.41
2023-06-08T19:05:28.894Z,47.47
2023-06-08T19:10:32.901Z,47.57
2023-06-08T19:15:35.528Z,47.43
2023-06-08T19:20:38.154Z,47.27
2023-06-08T19:25:42.138Z,46.78
2023-06-08T19:30:44.839Z,47.21
2023-06-08T19:35:47.481Z,46.58
2023-06-08T19:40:51.456Z,46.29
2023-06-08T19:45:54.228Z,45.87
2023-06-08T19:50:56.883Z,45.39
2023-06-08T19:56:00.975Z,45.12
2023-06-08T20:01:03.822Z,44.71
2023-06-08T20:06:06.673Z,44.48
2023-06-08T20:11:10.745Z,44.49
2023-06-08T20:16:13.665Z,44.61
2023-06-08T20:21:16.446Z,44.74
2023-06-08T20:26:20.524Z,44.85
2023-06-08T20:31:23.355Z,44.94
2023-06-08T20:36:26.246Z,44.89
2023-06-08T20:41:30.315Z,44.90
2023-06-08T20:46:33.387Z,44.95
2023-06-08T20:51:36.336Z,44.83
2023-06-08T20:56:40.461Z,44.97
2023-06-08T21:01:43.173Z,44.91
2023-06-08T21:06:46.301Z,44.85
2023-06-08T21:11:53.128Z,44.90
2023-06-08T21:16:56.141Z,44.81
2023-06-08T21:21:58.817Z,44.90
2023-06-08T21:27:02.809Z,44.98
2023-06-08T21:32:06.315Z,45.04
2023-06-08T21:37:08.975Z,45.08
2023-06-08T21:42:13.743Z,45.10
2023-06-08T21:47:16.449Z,45.26
2023-06-08T21:52:19.197Z,45.39
2023-06-08T21:57:23.162Z,45.50
2023-06-08T22:02:25.932Z,45.58
2023-06-08T22:07:28.721Z,45.66
2023-06-08T22:12:33.090Z,45.71
2023-06-08T22:17:35.855Z,46.07
2023-06-08T22:22:38.586Z,45.86
2023-06-08T22:27:42.802Z,46.01
2023-06-08T22:32:45.767Z,46.04
2023-06-08T22:37:48.376Z,46.07
2023-06-08T22:42:52.388Z,46.11
2023-06-08T22:47:55.139Z,46.13
2023-06-08T22:52:59.401Z,46.18
2023-06-08T22:58:03.745Z,46.29
2023-06-08T23:03:09.316Z,46.45
2023-06-08T23:08:13.751Z,46.32
2023-06-08T23:13:18.639Z,46.44
2023-06-08T23:18:25.212Z,46.41
2023-06-08T23:23:28.652Z,46.56
2023-06-08T23:28:38.084Z,46.73
2023-06-08T23:33:40.937Z,46.78
2023-06-08T23:38:43.644Z,46.83
2023-06-08T23:43:48.406Z,47.02
2023-06-08T23:48:51.097Z,47.09
2023-06-08T23:53:53.791Z,47.18
2023-06-08T23:58:57.824Z,47.17
